Time;durP1;ratioP1;P1;durP2;ratioP2;P2;SDS_P1;SDS_P2;PMS_P1;PMS_P2;Temp;Humidity;BMP_temperature;BMP_pressure;BME280_temperature;BME280_humidity;BME280_pressure;Samples;Min_cycle;Max_cycle;Signal;HPM_P1;HPM_P2
2021/06/04 00:02:32;;;;;;;3.30;3.00;;;;;;;13.27;75.38;96623.38;5097589;58;20132;-73
2021/06/04 00:07:35;;;;;;;5.05;3.13;;;;;;;13.22;75.07;96626.03;5099157;58;20136;-73
2021/06/04 00:12:39;;;;;;;3.83;2.72;;;;;;;13.16;75.89;96639.03;5098838;58;20141;-73
2021/06/04 00:17:43;;;;;;;4.00;2.70;;;;;;;13.19;75.66;96641.59;5098485;58;20123;-72
2021/06/04 00:22:45;;;;;;;2.97;2.65;;;;;;;13.14;76.17;96635.97;5098779;58;20124;-72
2021/06/04 00:27:48;;;;;;;3.38;3.08;;;;;;;13.19;75.88;96641.59;5103569;58;20119;-73
2021/06/04 00:32:51;;;;;;;3.20;2.90;;;;;;;13.10;76.36;96644.44;5110537;58;20123;-74
2021/06/04 00:37:54;;;;;;;3.40;3.15;;;;;;;13.11;76.03;96643.22;5099988;58;20146;-73
2021/06/04 00:42:58;;;;;;;3.67;3.38;;;;;;;13.00;76.70;96664.34;5098701;58;20155;-73
2021/06/04 00:48:00;;;;;;;3.97;3.15;;;;;;;13.02;77.33;96659.09;5099443;58;20127;-73
2021/06/04 00:53:26;;;;;;;4.53;3.00;;;;;;;12.88;77.62;96657.78;5101997;58;20233;-73
2021/06/04 00:58:35;;;;;;;3.80;3.03;;;;;;;12.86;77.90;96655.47;5101694;58;20136;-74
2021/06/04 01:03:41;;;;;;;3.42;3.13;;;;;;;12.83;77.49;96653.63;5101416;58;20643;-73
2021/06/04 01:09:21;;;;;;;4.95;3.17;;;;;;;12.84;76.47;96666.28;5101878;58;20147;-73
2021/06/04 01:14:36;;;;;;;3.03;2.83;;;;;;;12.57;77.30;96668.38;5101566;58;20137;-73
2021/06/04 01:20:02;;;;;;;4.38;2.97;;;;;;;12.42;77.81;96675.78;5101277;58;20132;-73
2021/06/04 01:25:42;;;;;;;6.43;3.08;;;;;;;12.30;78.33;96672.00;5101001;58;20119;-72
2021/06/04 01:31:21;;;;;;;3.03;2.83;;;;;;;12.35;78.80;96682.44;5101581;58;20132;-72
2021/06/04 01:36:30;;;;;;;6.63;2.92;;;;;;;12.27;78.90;96691.53;5094694;58;20123;-72
2021/06/04 01:41:35;;;;;;;3.17;2.90;;;;;;;12.23;79.13;96686.16;5100954;58;20132;-73
2021/06/04 01:46:42;;;;;;;3.25;2.92;;;;;;;12.15;78.91;96684.94;5100979;58;20602;-73
2021/06/04 01:51:49;;;;;;;2.92;2.72;;;;;;;12.13;79.15;96684.63;5100784;58;20667;-72
2021/06/04 01:56:57;;;;;;;3.00;2.80;;;;;;;12.03;79.76;96672.78;5092118;58;20128;-73
2021/06/04 02:02:01;;;;;;;5.07;3.03;;;;;;;12.17;78.93;96674.16;5100647;58;20642;-72
2021/06/04 02:07:11;;;;;;;6.78;2.95;;;;;;;12.23;78.81;96666.78;5100766;58;20123;-72
2021/06/04 02:12:14;;;;;;;3.40;3.10;;;;;;;12.34;78.70;96683.69;5100288;58;20599;-73
2021/06/04 02:17:48;;;;;;;2.80;2.60;;;;;;;12.33;78.68;96668.28;5100459;58;20593;-73
2021/06/04 02:23:02;;;;;;;5.93;2.72;;;;;;;12.54;77.33;96675.63;5100286;58;20647;-72
2021/06/04 02:28:17;;;;;;;2.83;2.63;;;;;;;12.46;77.72;96682.72;5100575;58;20137;-73
2021/06/04 02:33:43;;;;;;;4.05;2.70;;;;;;;12.34;78.23;96672.59;5100119;58;20132;-72
2021/06/04 02:38:52;;;;;;;3.20;2.90;;;;;;;12.42;77.55;96681.34;5100725;58;20132;-72
2021/06/04 02:44:10;;;;;;;3.10;2.80;;;;;;;12.41;77.92;96677.81;5100040;58;20122;-72
2021/06/04 02:49:15;;;;;;;3.08;2.85;;;;;;;12.49;77.49;96664.38;5100106;58;20579;-74
2021/06/04 02:54:23;;;;;;;3.28;2.95;;;;;;;12.55;77.50;96657.00;5099628;58;20137;-72
2021/06/04 02:59:36;;;;;;;5.20;2.88;;;;;;;12.60;77.93;96654.34;5100031;58;20128;-73
2021/06/04 03:04:43;;;;;;;2.85;2.65;;;;;;;12.65;77.59;96664.81;5100098;58;20132;-73
2021/06/04 03:09:46;;;;;;;3.45;2.90;;;;;;;12.66;77.83;96663.59;5099395;58;20141;-72
2021/06/04 03:14:51;;;;;;;3.28;2.75;;;;;;;12.74;77.90;96664.78;5099350;58;20127;-73
2021/06/04 03:19:54;;;;;;;3.97;2.95;;;;;;;12.83;78.00;96673.06;5100132;58;20119;-73
2021/06/04 03:25:01;;;;;;;3.22;2.88;;;;;;;12.61;78.01;96672.53;5099805;58;20123;-73
2021/06/04 03:30:06;;;;;;;3.63;3.33;;;;;;;12.52;78.68;96672.56;5099536;58;20127;-74
2021/06/04 03:35:09;;;;;;;6.13;3.00;;;;;;;12.46;79.22;96668.84;5099228;58;20150;-73
2021/06/04 03:40:16;;;;;;;3.50;3.20;;;;;;;12.44;79.40;96673.34;5099470;58;20133;-73
2021/06/04 03:45:24;;;;;;;3.20;3.00;;;;;;;12.40;79.58;96673.50;5099259;58;20132;-73
2021/06/04 03:50:27;;;;;;;3.55;3.25;;;;;;;12.45;79.69;96670.09;5099274;58;20681;-74
2021/06/04 03:55:30;;;;;;;3.55;2.88;;;;;;;12.55;78.87;96677.16;5098978;58;20140;-72
2021/06/04 04:00:41;;;;;;;3.40;3.10;;;;;;;12.63;78.98;96686.69;5118453;57;20791;-72
2021/06/04 04:05:44;;;;;;;4.80;2.78;;;;;;;12.75;78.54;96688.50;5139006;57;20130;-72
2021/06/04 04:10:48;;;;;;;3.50;3.20;;;;;;;12.98;78.00;96706.41;5139001;57;20140;-72
2021/06/04 04:15:52;;;;;;;6.13;3.33;;;;;;;13.30;77.25;96711.22;5138477;57;20656;-73
2021/06/04 04:20:59;;;;;;;4.32;3.20;;;;;;;13.65;75.66;96705.94;5138551;57;20112;-73
2021/06/04 04:26:04;;;;;;;5.43;3.25;;;;;;;14.07;75.69;96705.75;5141170;57;20135;-73
2021/06/04 04:31:11;;;;;;;4.53;3.30;;;;;;;14.38;74.08;96701.34;5142136;57;20134;-73
2021/06/04 04:36:16;;;;;;;3.40;3.20;;;;;;;14.66;72.45;96695.50;5141615;57;20117;-73
2021/06/04 04:41:20;;;;;;;3.17;2.97;;;;;;;14.83;73.11;96697.34;5142095;57;20140;-73
2021/06/04 04:46:26;;;;;;;5.00;3.33;;;;;;;15.05;70.61;96692.13;5141652;57;20653;-73
2021/06/04 04:51:31;;;;;;;3.58;3.05;;;;;;;15.16;70.62;96694.28;5141348;57;20697;-73
2021/06/04 04:56:34;;;;;;;3.40;3.10;;;;;;;15.22;71.12;96686.78;5141748;57;20143;-73
2021/06/04 05:01:37;;;;;;;5.20;3.20;;;;;;;15.62;69.17;96703.59;5132472;57;20117;-73
2021/06/04 05:06:40;;;;;;;4.53;3.22;;;;;;;15.92;69.44;96689.53;5141241;57;20117;-73
2021/06/04 05:11:44;;;;;;;3.90;3.35;;;;;;;16.25;67.24;96695.47;5141092;57;20161;-72
2021/06/04 05:16:47;;;;;;;5.03;3.38;;;;;;;16.59;66.08;96694.59;5141044;57;20139;-73
2021/06/04 05:21:50;;;;;;;7.00;3.47;;;;;;;16.94;63.15;96703.53;5140844;57;20697;-74
2021/06/04 05:26:53;;;;;;;7.57;3.70;;;;;;;17.11;63.44;96714.84;5154047;57;20121;-73
2021/06/04 05:31:57;;;;;;;7.10;3.60;;;;;;;17.21;63.83;96711.34;5155571;57;20139;-74
2021/06/04 05:37:00;;;;;;;3.53;3.20;;;;;;;17.62;62.87;96717.50;5141808;57;20135;-73
2021/06/04 05:42:04;;;;;;;6.22;3.67;;;;;;;17.76;61.21;96724.16;5140629;57;20131;-73
2021/06/04 05:47:13;;;;;;;6.55;3.67;;;;;;;18.04;60.00;96733.47;5141045;57;20144;-73
2021/06/04 05:52:16;;;;;;;4.90;3.53;;;;;;;18.38;58.78;96737.94;5140503;57;20134;-73
2021/06/04 05:57:18;;;;;;;3.22;2.92;;;;;;;18.64;59.18;96740.56;5140610;57;20117;-73
2021/06/04 06:02:21;;;;;;;3.85;3.33;;;;;;;18.52;60.54;96731.38;5140028;57;20130;-72
2021/06/04 06:07:24;;;;;;;3.70;3.22;;;;;;;18.86;58.88;96748.25;5131716;57;20589;-70
2021/06/04 06:12:26;;;;;;;5.63;3.47;;;;;;;18.95;58.26;96745.19;5131754;57;20653;-72
2021/06/04 06:17:29;;;;;;;3.33;3.08;;;;;;;19.35;57.75;96741.94;5140281;57;20122;-74
2021/06/04 06:22:31;;;;;;;5.07;3.50;;;;;;;19.81;56.32;96752.56;5139653;57;20126;-73
2021/06/04 06:27:34;;;;;;;3.63;3.30;;;;;;;20.12;55.28;96751.44;5139439;57;20139;-74
2021/06/04 06:32:37;;;;;;;3.72;3.15;;;;;;;20.30;54.19;96750.91;5139713;57;20150;-73
2021/06/04 06:37:40;;;;;;;4.63;3.38;;;;;;;20.75;55.33;96757.81;5131620;57;20604;-73
2021/06/04 06:42:43;;;;;;;4.45;3.30;;;;;;;21.05;52.82;96753.06;5139784;57;20130;-73
2021/06/04 06:47:45;;;;;;;3.60;3.30;;;;;;;21.36;53.15;96763.81;5139393;57;20130;-75
2021/06/04 06:52:48;;;;;;;3.70;3.40;;;;;;;21.58;53.22;96760.03;5139610;57;20148;-74
2021/06/04 06:57:51;;;;;;;6.07;3.67;;;;;;;21.79;51.80;96765.97;5139706;57;20724;-73
2021/06/04 07:02:53;;;;;;;4.50;3.55;;;;;;;22.29;52.64;96769.03;5139728;57;20122;-74
2021/06/04 07:07:57;;;;;;;5.78;3.75;;;;;;;23.11;48.40;96777.72;5139551;57;20134;-74
2021/06/04 07:13:03;;;;;;;6.38;4.40;;;;;;;23.43;48.13;96778.50;5139106;57;20603;-74
2021/06/04 07:18:07;;;;;;;5.45;4.20;;;;;;;22.72;49.00;96777.50;5139478;57;20131;-74
2021/06/04 07:23:11;;;;;;;4.28;3.92;;;;;;;23.21;50.24;96780.88;5139137;57;20680;-74
2021/06/04 07:28:16;;;;;;;5.97;3.88;;;;;;;23.08;50.33;96772.38;5124350;57;20102;-75
2021/06/04 07:33:23;;;;;;;8.77;4.40;;;;;;;23.72;47.46;96779.59;5096480;57;20739;-73
2021/06/04 07:38:26;;;;;;;7.47;4.90;;;;;;;24.16;46.15;96784.44;5109828;57;20128;-74
2021/06/04 07:43:32;;;;;;;5.53;4.57;;;;;;;22.80;49.49;96781.22;5107157;58;20131;-73
2021/06/04 07:48:35;;;;;;;4.50;4.10;;;;;;;23.60;49.28;96777.47;5105792;58;20136;-73
2021/06/04 07:53:41;;;;;;;6.15;4.40;;;;;;;24.82;45.66;96778.75;5109777;57;20148;-73
2021/06/04 07:58:46;;;;;;;4.10;3.80;;;;;;;25.18;48.37;96771.25;5112847;57;20161;-73
2021/06/04 08:03:49;;;;;;;5.05;3.85;;;;;;;25.85;46.14;96767.56;5113840;57;20113;-74
2021/06/04 08:08:54;;;;;;;6.15;3.88;;;;;;;25.37;44.55;96759.75;5108240;57;20221;-73
2021/06/04 08:13:59;;;;;;;6.88;4.55;;;;;;;25.29;44.07;96773.81;5109420;57;20122;-75
2021/06/04 08:19:02;;;;;;;5.00;4.47;;;;;;;25.53;43.57;96781.28;5109886;57;20691;-73
2021/06/04 08:24:05;;;;;;;4.75;4.35;;;;;;;27.59;40.52;96777.72;5104596;57;20149;-73
2021/06/04 08:29:10;;;;;;;4.65;4.25;;;;;;;27.22;41.81;96783.28;5108591;57;20162;-74
2021/06/04 08:34:12;;;;;;;5.68;3.92;;;;;;;27.18;41.21;96772.31;5111205;57;20230;-74
2021/06/04 08:39:19;;;;;;;7.65;4.30;;;;;;;27.84;38.68;96780.75;5112024;57;22269;-74
2021/06/04 08:44:45;;;;;;;4.43;4.03;;;;;;;28.05;40.27;96772.06;5112271;57;20127;-74
2021/06/04 08:50:11;;;;;;;5.60;4.40;;;;;;;29.30;37.98;96766.41;5104904;57;20127;-75
2021/06/04 08:55:38;;;;;;;4.68;4.00;;;;;;;30.53;34.76;96763.56;5108188;57;20127;-74
2021/06/04 09:00:50;;;;;;;6.05;3.70;;;;;;;31.47;35.20;96755.56;5105823;57;20119;-75
2021/06/04 09:06:07;;;;;;;7.18;4.57;;;;;;;32.51;33.01;96757.31;5104344;57;20131;-74
2021/06/04 09:11:13;;;;;;;4.22;3.53;;;;;;;31.86;34.31;96752.28;5107524;57;20119;-74
2021/06/04 09:16:29;;;;;;;4.78;3.63;;;;;;;32.75;31.91;96761.25;5108948;57;20198;-73
2021/06/04 09:21:36;;;;;;;5.80;3.92;;;;;;;30.68;38.43;96748.38;5107134;57;20596;-74
2021/06/04 09:26:39;;;;;;;5.63;4.35;;;;;;;27.96;39.96;96759.19;5102338;57;20122;-74
2021/06/04 09:31:47;;;;;;;5.55;3.42;;;;;;;28.07;41.69;96760.88;5112782;57;20140;-74
2021/06/04 09:37:19;;;;;;;4.18;3.40;;;;;;;27.66;43.97;96759.94;5107190;57;20721;-73
2021/06/04 09:42:26;;;;;;;4.93;4.38;;;;;;;28.29;42.81;96766.53;5106773;57;20123;-74
2021/06/04 09:47:38;;;;;;;4.57;4.15;;;;;;;28.84;39.20;96760.16;5111610;57;20123;-74
2021/06/04 09:52:41;;;;;;;5.75;3.90;;;;;;;29.15;40.11;96755.88;5105747;57;20807;-72
2021/06/04 09:58:01;;;;;;;4.32;3.97;;;;;;;28.41;42.10;96759.13;5102872;57;20229;-74
2021/06/04 10:03:12;;;;;;;6.28;4.50;;;;;;;29.01;40.25;96760.28;5106120;57;20126;-73
2021/06/04 10:08:23;;;;;;;4.53;4.10;;;;;;;30.56;38.41;96762.38;5107751;57;20231;-73
2021/06/04 10:13:34;;;;;;;3.92;3.63;;;;;;;31.44;35.98;96757.50;5117581;57;20188;-74
2021/06/04 10:18:39;;;;;;;4.05;3.70;;;;;;;31.77;36.10;96749.41;5120096;57;20128;-73
2021/06/04 10:23:48;;;;;;;4.70;3.63;;;;;;;32.98;32.17;96750.06;5111319;57;20131;-73
2021/06/04 10:29:04;;;;;;;3.47;3.17;;;;;;;33.31;28.28;96745.38;5131529;57;20113;-74
2021/06/04 10:34:13;;;;;;;3.77;2.97;;;;;;;33.77;30.16;96730.75;5139596;57;20140;-75
2021/06/04 10:39:28;;;;;;;2.60;2.50;;;;;;;33.41;31.35;96731.00;5116709;57;20105;-74
2021/06/04 10:44:57;;;;;;;3.25;2.35;;;;;;;34.37;29.17;96726.38;5117342;57;20596;-73
2021/06/04 10:50:11;;;;;;;4.18;2.60;;;;;;;34.67;28.97;96719.06;5101437;57;20225;-75
2021/06/04 10:55:33;;;;;;;4.40;3.08;;;;;;;33.97;27.84;96708.47;5106492;57;20708;-73
2021/06/04 11:00:44;;;;;;;3.22;2.90;;;;;;;31.28;30.91;96706.88;5106689;57;20136;-74
2021/06/04 11:06:07;;;;;;;7.10;3.17;;;;;;;33.48;31.12;96696.44;5109140;57;20274;-73
2021/06/04 11:11:53;;;;;;;3.45;2.95;;;;;;;31.72;31.48;96699.72;5108508;57;20139;-74
2021/06/04 11:17:17;;;;;;;3.17;2.87;;;;;;;30.05;35.12;96691.78;5068756;57;20114;-75
2021/06/04 11:22:32;;;;;;;3.70;3.10;;;;;;;30.25;33.98;96687.78;5105015;57;20122;-75
2021/06/04 11:27:41;;;;;;;3.50;3.20;;;;;;;29.22;34.80;96678.19;5105991;57;20145;-74
2021/06/04 11:33:06;;;;;;;4.80;3.38;;;;;;;30.58;34.88;96684.78;5111108;57;20128;-75
2021/06/04 11:38:24;;;;;;;5.13;3.33;;;;;;;32.73;31.09;96675.19;5099788;57;20110;-75
2021/06/04 11:43:31;;;;;;;4.65;4.13;;;;;;;30.75;35.10;96671.25;5113349;57;20118;-75
2021/06/04 11:48:53;;;;;;;4.55;3.40;;;;;;;31.43;32.09;96658.13;5111892;58;20118;-74
2021/06/04 11:54:30;;;;;;;3.90;3.30;;;;;;;31.74;32.32;96659.13;5111873;57;20238;-76
2021/06/04 11:59:51;;;;;;;3.28;2.97;;;;;;;32.87;32.04;96659.81;5108891;57;20162;-76
2021/06/04 12:05:09;;;;;;;6.40;4.15;;;;;;;33.12;31.49;96660.22;5110285;58;20118;-75
2021/06/04 12:10:14;;;;;;;6.20;3.05;;;;;;;33.68;30.58;96652.03;5106958;57;20127;-75
2021/06/04 12:15:17;;;;;;;3.20;2.90;;;;;;;34.50;28.29;96645.44;5113806;58;20122;-76
2021/06/04 12:20:41;;;;;;;4.05;3.38;;;;;;;31.64;29.39;96656.22;5099296;58;20118;-75
2021/06/04 12:25:49;;;;;;;6.35;2.97;;;;;;;31.51;29.96;96647.31;5110633;57;20131;-75
2021/06/04 12:31:01;;;;;;;5.53;3.08;;;;;;;29.29;31.58;96639.66;5107318;57;20592;-75
2021/06/04 12:36:29;;;;;;;3.75;3.30;;;;;;;29.67;32.34;96629.44;5105925;58;20609;-75
2021/06/04 12:41:32;;;;;;;3.58;3.00;;;;;;;31.24;29.77;96635.16;5116328;57;20711;-75
2021/06/04 12:46:35;;;;;;;3.33;2.53;;;;;;;31.22;29.35;96632.16;5117974;57;20149;-75
2021/06/04 12:51:44;;;;;;;2.70;2.50;;;;;;;30.55;30.97;96626.81;5110658;57;20171;-77
2021/06/04 12:56:53;;;;;;;3.10;2.85;;;;;;;29.97;31.55;96627.63;5101419;57;20123;-78
2021/06/04 13:02:12;;;;;;;2.90;2.70;;;;;;;31.06;28.63;96620.19;5110595;57;20118;-74
2021/06/04 13:07:23;;;;;;;2.92;2.60;;;;;;;30.33;30.14;96619.25;5109090;57;20140;-75
2021/06/04 13:12:31;;;;;;;2.83;2.63;;;;;;;31.13;33.31;96613.63;5106662;57;20140;-75
2021/06/04 13:17:35;;;;;;;3.88;3.03;;;;;;;30.24;31.49;96605.66;5105389;57;20664;-76
2021/06/04 13:22:41;;;;;;;3.95;3.00;;;;;;;29.84;30.53;96605.19;5107719;57;20659;-76
2021/06/04 13:27:44;;;;;;;2.50;2.40;;;;;;;29.74;31.05;96597.25;5108704;57;20610;-76
2021/06/04 13:32:50;;;;;;;2.72;2.53;;;;;;;29.35;31.42;96600.31;5106952;57;20131;-76
2021/06/04 13:37:57;;;;;;;4.50;3.13;;;;;;;28.70;33.50;96596.78;5108291;57;20131;-75
2021/06/04 13:43:20;;;;;;;;;;;;;;;28.84;31.55;96600.84;5114323;57;20127;-75
2021/06/04 13:48:25;;;;;;;2.50;2.30;;;;;;;29.09;32.20;96602.38;5118486;57;19974;-75
2021/06/04 13:53:41;;;;;;;3.22;2.60;;;;;;;28.89;30.77;96591.34;5117370;57;20131;-74
2021/06/04 13:58:46;;;;;;;2.63;2.25;;;;;;;29.17;29.53;96585.28;5108249;57;20127;-75
2021/06/04 14:03:52;;;;;;;4.07;2.38;;;;;;;29.27;32.37;96586.13;5102995;57;20126;-76
2021/06/04 14:09:22;;;;;;;4.15;2.60;;;;;;;29.71;28.01;96578.50;5118682;57;20118;-75
2021/06/04 14:14:41;;;;;;;2.85;2.65;;;;;;;30.98;28.37;96580.34;5117631;57;20127;-75
2021/06/04 14:20:00;;;;;;;2.35;2.25;;;;;;;30.28;28.31;96583.19;5117830;57;20114;-75
2021/06/04 14:25:12;;;;;;;2.10;2.00;;;;;;;30.11;30.20;96597.47;5112805;57;20149;-75
2021/06/04 14:30:30;;;;;;;14.70;2.80;;;;;;;26.70;43.13;96620.91;5104022;57;20115;-73
2021/06/04 14:36:09;;;;;;;9.30;2.78;;;;;;;26.11;44.79;96628.63;5099118;57;20241;-75
2021/06/04 14:41:13;;;;;;;5.30;2.63;;;;;;;26.72;44.04;96634.50;5097564;58;20119;-74
2021/06/04 14:46:40;;;;;;;4.25;2.50;;;;;;;25.87;46.27;96639.59;5097427;58;20124;-73
2021/06/04 14:51:43;;;;;;;5.35;3.00;;;;;;;25.57;46.43;96637.34;5100078;57;20122;-74
2021/06/04 14:56:46;;;;;;;6.50;2.92;;;;;;;25.13;46.16;96639.22;5117248;57;20622;-75
2021/06/04 15:01:49;;;;;;;7.55;2.75;;;;;;;24.56;46.61;96651.63;5097281;57;20127;-74
2021/06/04 15:06:52;;;;;;;6.78;2.65;;;;;;;24.70;45.82;96638.94;5097258;58;20145;-74
2021/06/04 15:11:55;;;;;;;5.97;2.60;;;;;;;24.29;46.75;96659.38;5096416;58;20127;-74
2021/06/04 15:16:59;;;;;;;4.75;2.30;;;;;;;23.96;47.97;96663.66;5097176;58;20119;-74
2021/06/04 15:22:03;;;;;;;2.40;2.20;;;;;;;23.87;47.30;96661.25;5097171;58;20145;-74
2021/06/04 15:27:08;;;;;;;3.38;2.30;;;;;;;23.52;48.35;96651.16;5104346;57;20130;-74
2021/06/04 15:32:11;;;;;;;6.13;3.05;;;;;;;23.16;49.45;96655.59;5108181;57;20133;-74
2021/06/04 15:37:13;;;;;;;2.38;2.05;;;;;;;23.37;49.07;96653.75;5125284;57;20118;-74
2021/06/04 15:42:16;;;;;;;3.35;2.13;;;;;;;23.44;48.83;96672.09;5110914;57;20126;-74
2021/06/04 15:47:19;;;;;;;2.10;1.90;;;;;;;23.12;49.92;96672.09;5117332;57;20122;-75
2021/06/04 15:52:22;;;;;;;3.85;2.10;;;;;;;23.07;49.29;96661.66;5109947;58;20123;-74
2021/06/04 15:57:24;;;;;;;3.67;1.90;;;;;;;22.90;49.72;96666.06;5114229;58;20145;-74
2021/06/04 16:02:28;;;;;;;3.92;1.90;;;;;;;23.01;48.43;96666.63;5106327;58;20141;-75
2021/06/04 16:07:31;;;;;;;4.03;2.10;;;;;;;23.24;50.10;96667.78;5115283;58;20131;-74
2021/06/04 16:12:33;;;;;;;3.28;2.10;;;;;;;23.33;51.21;96649.69;5114024;58;20122;-75
2021/06/04 16:17:38;;;;;;;3.25;1.70;;;;;;;23.09;49.67;96647.03;5115264;57;20161;-74
2021/06/04 16:22:42;;;;;;;2.10;1.90;;;;;;;23.13;52.21;96636.22;5117601;57;20131;-73
2021/06/04 16:27:45;;;;;;;3.95;1.90;;;;;;;22.69;55.68;96632.03;5119127;57;20127;-76
2021/06/04 16:32:48;;;;;;;4.97;2.22;;;;;;;22.16;59.18;96638.69;5111016;57;20122;-77
2021/06/04 16:37:51;;;;;;;3.97;1.75;;;;;;;21.63;62.82;96629.06;5110341;57;20122;-77
2021/06/04 16:42:57;;;;;;;6.93;2.40;;;;;;;21.09;66.51;96632.69;5113879;57;20143;-77
2021/06/04 16:48:00;;;;;;;2.53;2.33;;;;;;;21.21;69.35;96630.56;5099412;58;20119;-77
2021/06/04 16:53:03;;;;;;;4.72;2.55;;;;;;;21.01;70.75;96619.72;5104695;57;20659;-76
2021/06/04 16:58:07;;;;;;;4.72;2.50;;;;;;;20.70;72.46;96615.38;5113087;57;20118;-76
2021/06/04 17:03:10;;;;;;;5.60;2.67;;;;;;;20.64;72.86;96600.63;5111030;57;20207;-77
2021/06/04 17:08:14;;;;;;;2.70;2.50;;;;;;;20.42;72.87;96593.13;5114081;57;20114;-75
2021/06/04 17:13:17;;;;;;;8.85;2.80;;;;;;;20.24;73.54;96571.28;5118386;57;20145;-76
2021/06/04 17:18:20;;;;;;;3.55;2.20;;;;;;;20.13;74.16;96573.41;5118453;57;20241;-76
2021/06/04 17:23:26;;;;;;;3.10;2.85;;;;;;;19.99;74.07;96562.00;5118175;57;20131;-76
2021/06/04 17:28:31;;;;;;;6.43;2.80;;;;;;;19.77;75.07;96545.28;5118535;57;20671;-76
2021/06/04 17:33:34;;;;;;;5.13;3.20;;;;;;;20.19;73.89;96541.22;5113850;57;20154;-76
2021/06/04 17:38:37;;;;;;;3.83;2.92;;;;;;;20.37;73.92;96548.25;5098870;58;20132;-76
2021/06/04 17:43:40;;;;;;;5.35;3.00;;;;;;;20.32;74.96;96543.44;5105685;57;20588;-76
2021/06/04 17:48:43;;;;;;;3.42;3.10;;;;;;;20.46;74.39;96554.31;5110326;57;20740;-76
2021/06/04 17:53:47;;;;;;;7.65;3.25;;;;;;;20.38;75.03;96558.97;5106667;57;20183;-77
2021/06/04 17:58:49;;;;;;;4.00;2.90;;;;;;;20.15;74.74;96582.06;5106871;57;20109;-76
2021/06/04 18:03:52;;;;;;;6.43;3.17;;;;;;;20.28;74.19;96585.06;5100445;57;20592;-76
2021/06/04 18:08:54;;;;;;;5.80;3.72;;;;;;;20.06;73.65;96582.38;5116514;57;20224;-76
2021/06/04 18:13:57;;;;;;;3.60;3.30;;;;;;;19.92;75.15;96590.59;5117013;57;20720;-76
2021/06/04 18:19:00;;;;;;;8.10;4.00;;;;;;;19.91;74.86;96591.88;5101514;57;20130;-76
2021/06/04 18:24:03;;;;;;;6.82;4.13;;;;;;;19.78;75.54;96591.69;5099878;57;20114;-76
2021/06/04 18:29:06;;;;;;;5.93;3.85;;;;;;;19.70;76.48;96587.91;5116564;57;20144;-75
2021/06/04 18:34:08;;;;;;;6.45;4.00;;;;;;;19.49;76.59;96586.72;5099929;57;20739;-76
2021/06/04 18:39:11;;;;;;;5.85;3.97;;;;;;;19.45;76.14;96589.00;5108250;57;20650;-76
2021/06/04 18:44:13;;;;;;;4.30;3.90;;;;;;;19.25;77.29;96586.50;5114060;57;20131;-76
2021/06/04 18:49:17;;;;;;;7.38;4.10;;;;;;;19.23;76.82;96592.63;5129255;57;20123;-75
2021/06/04 18:54:19;;;;;;;6.13;4.38;;;;;;;19.20;77.77;96598.50;5111635;57;20232;-76
2021/06/04 18:59:22;;;;;;;6.70;4.13;;;;;;;19.18;77.51;96606.63;5121409;57;20140;-76
2021/06/04 19:04:25;;;;;;;5.40;4.15;;;;;;;18.91;78.17;96599.81;5128454;57;20123;-76
2021/06/04 19:09:28;;;;;;;5.05;4.43;;;;;;;18.75;77.99;96603.38;5116568;57;20636;-76
2021/06/04 19:14:31;;;;;;;6.00;4.75;;;;;;;18.74;78.55;96609.50;5116551;57;20149;-76
2021/06/04 19:19:34;;;;;;;5.22;4.32;;;;;;;18.72;78.13;96614.84;5099957;57;20137;-75
2021/06/04 19:24:36;;;;;;;5.07;4.22;;;;;;;18.67;78.92;96619.19;5100957;57;20127;-75
2021/06/04 19:29:40;;;;;;;4.32;4.03;;;;;;;18.48;79.65;96616.09;5102340;57;20119;-76
2021/06/04 19:34:44;;;;;;;5.47;4.95;;;;;;;18.37;80.73;96630.06;5100461;57;20926;-76
2021/06/04 19:39:47;;;;;;;8.30;5.82;;;;;;;18.35;80.67;96635.41;5101188;57;20572;-75
2021/06/04 19:44:50;;;;;;;7.10;6.40;;;;;;;18.28;80.79;96635.91;5091993;57;20521;-76
2021/06/04 19:49:53;;;;;;;6.15;5.55;;;;;;;18.21;80.67;96639.19;5101653;57;20132;-74
2021/06/04 19:54:55;;;;;;;4.95;4.55;;;;;;;18.21;81.00;96632.81;5106119;57;20804;-75
2021/06/04 19:59:58;;;;;;;6.20;4.95;;;;;;;18.15;81.73;96646.81;5110052;57;20162;-76
2021/06/04 20:05:00;;;;;;;5.45;4.85;;;;;;;18.25;81.57;96638.94;5124633;57;20131;-74
2021/06/04 20:10:06;;;;;;;5.03;4.55;;;;;;;18.09;82.34;96631.28;5110900;57;20136;-75
2021/06/04 20:15:12;;;;;;;6.88;5.25;;;;;;;17.83;83.36;96637.03;5097306;57;20579;-76
2021/06/04 20:20:17;;;;;;;7.60;5.57;;;;;;;17.94;83.28;96639.88;5120166;57;20135;-76
2021/06/04 20:25:23;;;;;;;5.28;4.85;;;;;;;17.98;83.40;96640.38;5089639;57;20118;-75
2021/06/04 20:30:26;;;;;;;8.30;5.85;;;;;;;17.98;83.37;96637.59;5113143;57;20123;-75
2021/06/04 20:35:30;;;;;;;6.60;6.00;;;;;;;17.96;83.48;96620.56;5108123;57;20140;-74
2021/06/04 20:40:34;;;;;;;9.07;7.53;;;;;;;17.84;84.10;96627.41;5127019;57;20122;-75
2021/06/04 20:45:44;;;;;;;7.72;6.63;;;;;;;17.76;84.34;96624.31;5112097;57;20234;-75
2021/06/04 20:50:48;;;;;;;7.22;5.50;;;;;;;17.99;82.88;96613.97;5108521;57;20110;-75
2021/06/04 20:55:51;;;;;;;7.40;4.80;;;;;;;18.03;82.45;96608.88;5103351;57;20154;-75
2021/06/04 21:00:54;;;;;;;6.22;5.30;;;;;;;17.58;83.86;96601.63;5102902;57;20746;-74
2021/06/04 21:05:57;;;;;;;7.65;5.65;;;;;;;17.46;84.28;96600.78;5120005;57;20127;-76
2021/06/04 21:10:59;;;;;;;6.45;5.75;;;;;;;17.50;83.67;96597.75;5107082;57;20111;-74
2021/06/04 21:16:03;;;;;;;9.40;5.57;;;;;;;17.13;84.89;96601.38;5102192;57;20721;-75
2021/06/04 21:21:07;;;;;;;6.13;5.53;;;;;;;17.00;85.95;96605.84;5112829;57;20140;-74
2021/06/04 21:26:13;;;;;;;6.70;5.72;;;;;;;16.74;85.98;96594.00;5108668;57;20646;-75
2021/06/04 21:31:16;;;;;;;7.28;6.15;;;;;;;16.51;86.48;96593.06;5109354;57;20225;-75
2021/06/04 21:36:22;;;;;;;9.00;6.72;;;;;;;16.37;87.16;96600.25;5088108;58;20132;-75
2021/06/04 21:41:29;;;;;;;8.18;7.18;;;;;;;16.44;87.35;96599.06;5103615;57;20119;-75
2021/06/04 21:46:31;;;;;;;7.63;6.93;;;;;;;16.53;87.30;96590.56;5112779;57;20112;-75
2021/06/04 21:51:51;;;;;;;11.20;7.07;;;;;;;16.46;87.70;96586.13;5111253;57;20295;-75
2021/06/04 21:56:54;;;;;;;8.40;7.13;;;;;;;16.33;87.64;96588.56;5099126;57;20131;-75
2021/06/04 22:01:56;;;;;;;7.30;5.63;;;;;;;16.23;87.81;96580.88;5108617;57;20600;-75
2021/06/04 22:06:59;;;;;;;6.43;5.82;;;;;;;16.05;87.69;96589.56;5109699;57;20101;-74
2021/06/04 22:12:03;;;;;;;6.50;5.90;;;;;;;15.99;87.91;96575.56;5108382;57;20114;-75
2021/06/04 22:17:05;;;;;;;6.30;5.70;;;;;;;15.87;87.72;96567.59;5117396;57;20139;-75
2021/06/04 22:22:08;;;;;;;6.57;5.97;;;;;;;15.80;87.92;96557.66;5109099;57;20225;-75
2021/06/04 22:27:10;;;;;;;7.50;6.80;;;;;;;15.86;87.95;96564.03;5105062;57;20247;-75
2021/06/04 22:32:13;;;;;;;7.07;6.38;;;;;;;15.74;87.62;96565.94;5117503;57;20574;-75
2021/06/04 22:37:15;;;;;;;6.55;5.85;;;;;;;15.60;88.07;96561.22;5111129;57;20113;-75
2021/06/04 22:42:18;;;;;;;6.15;5.55;;;;;;;15.50;87.66;96559.09;5103601;57;20126;-75
2021/06/04 22:47:20;;;;;;;7.97;6.80;;;;;;;15.37;88.15;96556.66;5119576;57;20118;-75
2021/06/04 22:52:23;;;;;;;9.43;7.25;;;;;;;15.36;89.01;96551.53;5103669;57;20123;-75
2021/06/04 22:57:25;;;;;;;7.78;6.22;;;;;;;15.37;88.79;96561.44;5099856;58;20219;-75
2021/06/04 23:02:29;;;;;;;7.40;6.68;;;;;;;15.28;88.66;96562.34;5091459;58;20713;-75
2021/06/04 23:07:31;;;;;;;6.97;6.28;;;;;;;15.27;88.31;96566.38;5091814;58;20337;-75
2021/06/04 23:12:33;;;;;;;6.82;6.18;;;;;;;15.23;88.28;96571.41;5099923;58;20600;-75
2021/06/04 23:17:36;;;;;;;7.03;6.32;;;;;;;15.23;88.45;96568.63;5099481;58;20132;-75
2021/06/04 23:22:39;;;;;;;8.38;6.97;;;;;;;15.21;89.23;96562.78;5099882;58;20687;-75
2021/06/04 23:27:42;;;;;;;10.32;7.72;;;;;;;15.32;89.17;96565.69;5090942;58;20132;-75
2021/06/04 23:32:45;;;;;;;11.90;10.73;;;;;;;15.33;89.20;96553.31;5085591;58;20191;-74
2021/06/04 23:37:48;;;;;;;15.05;12.35;;;;;;;15.32;89.49;96562.91;5101457;58;20653;-75
2021/06/04 23:42:51;;;;;;;9.48;8.50;;;;;;;15.38;88.46;96560.94;5090617;58;20162;-75
2021/06/04 23:47:54;;;;;;;11.48;8.65;;;;;;;15.31;89.12;96561.38;5083398;58;20128;-75
2021/06/04 23:53:06;;;;;;;10.52;9.48;;;;;;;15.31;89.97;96561.38;5090150;58;20145;-75
2021/06/04 23:58:08;;;;;;;12.73;10.55;;;;;;;15.64;90.62;96561.03;5099489;58;20136;-74
